Time;durP1;ratioP1;P1;durP2;ratioP2;P2;SDS_P1;SDS_P2;PMS_P1;PMS_P2;Temp;Humidity;BMP_temperature;BMP_pressure;BME280_temperature;BME280_humidity;BME280_pressure;Samples;Min_cycle;Max_cycle;Signal;HPM_P1;HPM_P2
2022/04/27 00:01:51;;;;;;;1.75;1.65;;;;;;;;;;5018574;28;20234;-55
2022/04/27 00:04:19;;;;;;;2.03;1.92;;;;;;;;;;5024842;28;20202;-55
2022/04/27 00:06:47;;;;;;;1.80;1.70;;;;;;;;;;5038661;28;20312;-55
2022/04/27 00:09:14;;;;;;;1.70;1.60;;;;;;;;;;5038428;28;20308;-55
2022/04/27 00:11:43;;;;;;;2.08;1.98;;;;;;;;;;5041692;28;20233;-55
2022/04/27 00:14:10;;;;;;;1.75;1.65;;;;;;;;;;5058460;28;20205;-55
2022/04/27 00:16:37;;;;;;;1.90;1.80;;;;;;;;;;5050373;28;20198;-55
2022/04/27 00:19:05;;;;;;;1.80;1.70;;;;;;;;;;5038557;28;20213;-55
2022/04/27 00:21:33;;;;;;;1.45;1.35;;;;;;;;;;5038053;28;20240;-56
2022/04/27 00:24:02;;;;;;;1.75;1.65;;;;;;;;;;5038702;28;20209;-56
2022/04/27 00:26:29;;;;;;;1.80;1.70;;;;;;;;;;5038354;28;20206;-56
2022/04/27 00:28:58;;;;;;;1.95;1.85;;;;;;;;;;5038469;28;20209;-56
2022/04/27 00:31:25;;;;;;;1.70;1.60;;;;;;;;;;5038067;28;20201;-56
2022/04/27 00:33:53;;;;;;;1.50;1.40;;;;;;;;;;5042212;28;20197;-56
2022/04/27 00:36:20;;;;;;;1.70;1.60;;;;;;;;;;5057678;28;20267;-56
2022/04/27 00:38:47;;;;;;;2.00;1.90;;;;;;;;;;5044096;28;20210;-56
2022/04/27 00:41:15;;;;;;;1.63;1.52;;;;;;;;;;5040723;28;20197;-56
2022/04/27 00:43:43;;;;;;;1.70;1.60;;;;;;;;;;5055959;28;20201;-56
2022/04/27 00:46:12;;;;;;;1.70;1.60;;;;;;;;;;5039175;28;20202;-56
2022/04/27 00:48:41;;;;;;;1.50;1.40;;;;;;;;;;5037746;28;20232;-56
2022/04/27 00:51:10;;;;;;;1.58;1.48;;;;;;;;;;5037926;28;20205;-56
2022/04/27 00:53:40;;;;;;;1.90;1.80;;;;;;;;;;5037583;28;20488;-56
2022/04/27 00:56:08;;;;;;;1.98;1.88;;;;;;;;;;5037088;28;20202;-55
2022/04/27 00:58:35;;;;;;;1.80;1.70;;;;;;;;;;5037215;28;20316;-55
2022/04/27 01:01:03;;;;;;;1.90;1.80;;;;;;;;;;5037297;28;20209;-55
2022/04/27 01:03:33;;;;;;;1.60;1.50;;;;;;;;;;5037675;28;20234;-55
2022/04/27 01:06:03;;;;;;;1.58;1.48;;;;;;;;;;5037330;28;20491;-55
2022/04/27 01:08:31;;;;;;;1.80;1.70;;;;;;;;;;5036819;28;20202;-56
2022/04/27 01:11:00;;;;;;;1.55;1.45;;;;;;;;;;5037091;28;20206;-56
2022/04/27 01:13:28;;;;;;;1.85;1.75;;;;;;;;;;5036965;28;20337;-55
2022/04/27 01:15:56;;;;;;;1.77;1.67;;;;;;;;;;5037074;28;20216;-55
2022/04/27 01:18:23;;;;;;;1.70;1.60;;;;;;;;;;5037039;28;20279;-56
2022/04/27 01:20:52;;;;;;;1.45;1.35;;;;;;;;;;5036788;28;20213;-56
2022/04/27 01:23:20;;;;;;;1.80;1.70;;;;;;;;;;5036927;28;20308;-56
2022/04/27 01:25:49;;;;;;;1.70;1.60;;;;;;;;;;5036911;28;20499;-56
2022/04/27 01:28:17;;;;;;;1.60;1.50;;;;;;;;;;5037226;28;20206;-56
2022/04/27 01:30:45;;;;;;;1.63;1.52;;;;;;;;;;5044244;28;20201;-56
2022/04/27 01:33:12;;;;;;;1.67;1.58;;;;;;;;;;5056943;28;20266;-56
2022/04/27 01:35:41;;;;;;;1.40;1.30;;;;;;;;;;5057066;28;20205;-56
2022/04/27 01:38:10;;;;;;;1.77;1.67;;;;;;;;;;5057085;28;20205;-56
2022/04/27 01:40:39;;;;;;;1.77;1.67;;;;;;;;;;5051899;28;20202;-56
2022/04/27 01:43:06;;;;;;;1.80;1.70;;;;;;;;;;5056307;28;20221;-56
2022/04/27 01:45:33;;;;;;;1.70;1.60;;;;;;;;;;5042193;28;20194;-56
2022/04/27 01:48:01;;;;;;;1.73;1.63;;;;;;;;;;5036664;28;20618;-56
2022/04/27 01:50:28;;;;;;;1.58;1.48;;;;;;;;;;5049815;28;20606;-56
2022/04/27 01:55:42;;;;;;;1.80;1.70;;;;;;;;;;5036519;28;20290;-56
2022/04/27 01:58:10;;;;;;;1.67;1.58;;;;;;;;;;5036471;28;20206;-56
2022/04/27 02:00:38;;;;;;;1.50;1.40;;;;;;;;;;5047124;28;20200;-56
2022/04/27 02:03:06;;;;;;;1.42;1.33;;;;;;;;;;5036775;28;20323;-56
2022/04/27 02:05:34;;;;;;;1.73;1.63;;;;;;;;;;5042292;28;20487;-56
2022/04/27 02:08:02;;;;;;;1.60;1.50;;;;;;;;;;5056647;28;20307;-56
2022/04/27 02:10:30;;;;;;;1.90;1.80;;;;;;;;;;5056787;28;20205;-56
2022/04/27 02:12:59;;;;;;;1.60;1.50;;;;;;;;;;5056432;28;20237;-56
2022/04/27 02:15:27;;;;;;;1.70;1.60;;;;;;;;;;5056386;28;20272;-56
2022/04/27 02:17:55;;;;;;;1.80;1.70;;;;;;;;;;5049025;28;20584;-56
2022/04/27 02:20:23;;;;;;;1.70;1.60;;;;;;;;;;5036661;28;20724;-56
2022/04/27 02:22:50;;;;;;;1.60;1.50;;;;;;;;;;5036691;28;20252;-56
2022/04/27 02:25:17;;;;;;;1.55;1.45;;;;;;;;;;5036485;28;20205;-56
2022/04/27 02:27:45;;;;;;;1.50;1.40;;;;;;;;;;5036352;28;20225;-56
2022/04/27 02:30:15;;;;;;;1.70;1.60;;;;;;;;;;5036490;28;20205;-56
2022/04/27 02:32:43;;;;;;;1.42;1.33;;;;;;;;;;5036056;28;20732;-56
2022/04/27 02:35:11;;;;;;;1.63;1.52;;;;;;;;;;5036359;28;20209;-56
2022/04/27 02:37:38;;;;;;;1.50;1.40;;;;;;;;;;5036653;28;20212;-56
2022/04/27 02:40:09;;;;;;;1.50;1.40;;;;;;;;;;5048564;28;20201;-56
2022/04/27 02:42:36;;;;;;;1.75;1.58;;;;;;;;;;5039775;28;20673;-56
2022/04/27 02:45:04;;;;;;;1.52;1.42;;;;;;;;;;5047360;28;20262;-56
2022/04/27 02:47:33;;;;;;;1.70;1.60;;;;;;;;;;5060180;28;20209;-56
2022/04/27 02:52:45;;;;;;;1.60;1.50;;;;;;;;;;5059656;28;20200;-56
2022/04/27 02:55:13;;;;;;;1.60;1.50;;;;;;;;;;5050573;28;20212;-56
2022/04/27 02:57:40;;;;;;;1.95;1.52;;;;;;;;;;5059631;28;20204;-56
2022/04/27 03:00:09;;;;;;;1.75;1.65;;;;;;;;;;5057885;28;20229;-56
2022/04/27 03:02:39;;;;;;;1.50;1.40;;;;;;;;;;5058589;28;20742;-55
2022/04/27 03:05:07;;;;;;;1.42;1.33;;;;;;;;;;5059433;28;20250;-56
2022/04/27 03:07:34;;;;;;;1.67;1.58;;;;;;;;;;5057407;28;20209;-55
2022/04/27 03:10:02;;;;;;;1.60;1.50;;;;;;;;;;5039344;28;20205;-55
2022/04/27 03:12:29;;;;;;;1.60;1.50;;;;;;;;;;5048442;28;20665;-55
2022/04/27 03:14:56;;;;;;;1.60;1.50;;;;;;;;;;5058844;28;20209;-55
2022/04/27 03:17:24;;;;;;;1.70;1.60;;;;;;;;;;5050170;28;20501;-55
2022/04/27 03:19:52;;;;;;;1.50;1.40;;;;;;;;;;5039218;28;20204;-55
2022/04/27 03:22:20;;;;;;;1.60;1.50;;;;;;;;;;5039287;28;20483;-55
2022/04/27 03:24:47;;;;;;;1.55;1.45;;;;;;;;;;5039232;28;20220;-55
2022/04/27 03:27:15;;;;;;;1.15;1.15;;;;;;;;;;5047233;28;20198;-55
2022/04/27 03:29:42;;;;;;;1.45;1.35;;;;;;;;;;5038920;28;20225;-55
2022/04/27 03:32:11;;;;;;;1.65;1.42;;;;;;;;;;5052137;28;20205;-56
2022/04/27 03:34:38;;;;;;;1.55;1.45;;;;;;;;;;5058687;28;20263;-56
2022/04/27 03:37:07;;;;;;;1.60;1.50;;;;;;;;;;5058586;28;20200;-56
2022/04/27 03:39:35;;;;;;;1.58;1.48;;;;;;;;;;5045441;28;20207;-56
2022/04/27 03:42:03;;;;;;;1.63;1.52;;;;;;;;;;5058390;28;20205;-56
2022/04/27 03:44:30;;;;;;;1.80;1.70;;;;;;;;;;5058274;28;20606;-56
2022/04/27 03:46:58;;;;;;;1.60;1.50;;;;;;;;;;5038723;28;20667;-56
2022/04/27 03:49:25;;;;;;;1.80;1.70;;;;;;;;;;5039637;28;20210;-56
2022/04/27 03:51:53;;;;;;;1.67;1.58;;;;;;;;;;5037451;28;20228;-56
2022/04/27 03:54:22;;;;;;;1.58;1.48;;;;;;;;;;5037745;28;20209;-56
2022/04/27 03:56:49;;;;;;;1.45;1.35;;;;;;;;;;5056342;28;20205;-56
2022/04/27 03:59:17;;;;;;;1.50;1.40;;;;;;;;;;5046684;28;20609;-56
2022/04/27 04:01:45;;;;;;;1.55;1.45;;;;;;;;;;5058049;28;20287;-56
2022/04/27 04:04:12;;;;;;;1.45;1.30;;;;;;;;;;5043208;28;20217;-56
2022/04/27 04:06:40;;;;;;;1.50;1.40;;;;;;;;;;5038090;28;20619;-56
2022/04/27 04:09:09;;;;;;;1.60;1.50;;;;;;;;;;5037710;28;20198;-56
2022/04/27 04:11:38;;;;;;;1.52;1.42;;;;;;;;;;5038002;28;20213;-56
2022/04/27 04:14:05;;;;;;;1.45;1.35;;;;;;;;;;5037855;28;20201;-56
2022/04/27 04:16:33;;;;;;;1.40;1.30;;;;;;;;;;5053137;28;20296;-55
2022/04/27 04:19:00;;;;;;;1.20;1.20;;;;;;;;;;5057036;28;20205;-56
2022/04/27 04:21:28;;;;;;;1.40;1.40;;;;;;;;;;5057578;28;20208;-56
2022/04/27 04:23:55;;;;;;;1.60;1.50;;;;;;;;;;5057336;28;20230;-55
2022/04/27 04:29:09;;;;;;;1.50;1.40;;;;;;;;;;5044843;28;20197;-55
2022/04/27 04:31:36;;;;;;;1.50;1.40;;;;;;;;;;5037214;28;20202;-55
2022/04/27 04:34:04;;;;;;;1.00;1.00;;;;;;;;;;5036828;28;20197;-56
2022/04/27 04:36:31;;;;;;;1.80;1.70;;;;;;;;;;5036610;28;20206;-56
2022/04/27 04:38:59;;;;;;;1.60;1.50;;;;;;;;;;5050473;28;20207;-56
2022/04/27 04:41:26;;;;;;;1.52;1.42;;;;;;;;;;5036247;28;20272;-55
2022/04/27 04:43:54;;;;;;;1.60;1.50;;;;;;;;;;5050449;28;20239;-55
2022/04/27 04:46:23;;;;;;;1.40;1.30;;;;;;;;;;5041538;28;20194;-55
2022/04/27 04:48:50;;;;;;;1.45;1.35;;;;;;;;;;5035376;28;20510;-55
2022/04/27 04:51:17;;;;;;;1.60;1.50;;;;;;;;;;5035773;28;20197;-56
2022/04/27 04:53:45;;;;;;;1.38;1.27;;;;;;;;;;5035237;28;20194;-55
2022/04/27 04:56:12;;;;;;;1.60;1.50;;;;;;;;;;5035651;28;20205;-55
2022/04/27 04:58:39;;;;;;;1.70;1.60;;;;;;;;;;5051193;28;20208;-55
2022/04/27 05:01:07;;;;;;;1.77;1.67;;;;;;;;;;5034557;28;20193;-55
2022/04/27 05:03:37;;;;;;;1.60;1.50;;;;;;;;;;5034111;28;20217;-56
2022/04/27 05:06:04;;;;;;;1.20;1.20;;;;;;;;;;5035258;28;20244;-56
2022/04/27 05:08:31;;;;;;;1.60;1.50;;;;;;;;;;5034293;28;20285;-56
2022/04/27 05:10:59;;;;;;;1.50;1.40;;;;;;;;;;5050034;28;20201;-56
2022/04/27 05:13:27;;;;;;;1.70;1.60;;;;;;;;;;5054617;28;20622;-56
2022/04/27 05:15:55;;;;;;;1.50;1.40;;;;;;;;;;5041793;28;20201;-56
2022/04/27 05:18:23;;;;;;;1.50;1.40;;;;;;;;;;5039797;28;20232;-56
2022/04/27 05:20:52;;;;;;;1.50;1.40;;;;;;;;;;5054161;28;20203;-56
2022/04/27 05:23:19;;;;;;;1.40;1.30;;;;;;;;;;5054259;28;20225;-56
2022/04/27 05:25:47;;;;;;;1.63;1.52;;;;;;;;;;5034443;28;20213;-56
2022/04/27 05:28:14;;;;;;;1.40;1.30;;;;;;;;;;5033563;28;20225;-56
2022/04/27 05:33:26;;;;;;;1.55;1.45;;;;;;;;;;5033908;28;20205;-56
2022/04/27 05:35:55;;;;;;;1.67;1.58;;;;;;;;;;5033640;28;20205;-56
2022/04/27 05:38:22;;;;;;;1.33;1.25;;;;;;;;;;5034085;28;20229;-56
2022/04/27 05:40:50;;;;;;;1.65;1.55;;;;;;;;;;5035247;28;20201;-56
2022/04/27 05:43:17;;;;;;;1.50;1.40;;;;;;;;;;5034144;28;20225;-56
2022/04/27 05:45:46;;;;;;;1.30;1.20;;;;;;;;;;5034146;28;20193;-56
2022/04/27 05:48:13;;;;;;;1.42;1.33;;;;;;;;;;5034842;28;20206;-56
2022/04/27 05:50:41;;;;;;;1.70;1.60;;;;;;;;;;5033882;28;20206;-56
2022/04/27 05:53:10;;;;;;;1.70;1.60;;;;;;;;;;5034154;28;20592;-56
2022/04/27 05:55:43;;;;;;;2.05;1.88;;;;;;;;;;5032972;28;20208;-56
2022/04/27 05:58:11;;;;;;;2.35;1.98;;;;;;;;;;5033232;28;20205;-56
2022/04/27 06:00:38;;;;;;;2.13;1.73;;;;;;;;;;5032736;28;20251;-56
2022/04/27 06:03:05;;;;;;;2.60;2.10;;;;;;;;;;5031184;28;20198;-55
2022/04/27 06:05:33;;;;;;;2.67;1.60;;;;;;;;;;5030930;28;20224;-56
2022/04/27 06:08:00;;;;;;;2.33;2.00;;;;;;;;;;5032310;28;20217;-56
2022/04/27 06:10:29;;;;;;;2.72;1.90;;;;;;;;;;5030974;28;20494;-56
2022/04/27 06:12:56;;;;;;;2.30;2.13;;;;;;;;;;5031227;28;20644;-56
2022/04/27 06:15:24;;;;;;;3.75;2.10;;;;;;;;;;5032240;28;20552;-56
2022/04/27 06:17:53;;;;;;;3.38;2.15;;;;;;;;;;5033257;28;20651;-55
2022/04/27 06:20:21;;;;;;;2.50;2.17;;;;;;;;;;5035005;28;20602;-55
2022/04/27 06:22:48;;;;;;;4.35;2.40;;;;;;;;;;5033931;28;20206;-55
2022/04/27 06:25:15;;;;;;;2.45;2.20;;;;;;;;;;5033654;28;20295;-55
2022/04/27 06:27:45;;;;;;;3.40;2.53;;;;;;;;;;5033580;28;20205;-55
2022/04/27 06:30:13;;;;;;;3.03;2.20;;;;;;;;;;5034525;28;20674;-56
2022/04/27 06:32:40;;;;;;;3.90;2.30;;;;;;;;;;5033075;28;20202;-56
2022/04/27 06:35:09;;;;;;;2.35;2.10;;;;;;;;;;5032376;28;20189;-56
2022/04/27 06:37:36;;;;;;;4.50;2.47;;;;;;;;;;5033498;28;20293;-56
2022/04/27 06:40:04;;;;;;;3.75;2.58;;;;;;;;;;5032444;28;20202;-56
2022/04/27 06:42:31;;;;;;;3.25;2.40;;;;;;;;;;5030497;28;20211;-56
2022/04/27 06:45:02;;;;;;;2.85;2.50;;;;;;;;;;5031556;28;20229;-56
2022/04/27 06:47:30;;;;;;;3.67;2.20;;;;;;;;;;5031825;28;20213;-56
2022/04/27 06:49:57;;;;;;;3.33;2.20;;;;;;;;;;5031901;28;20202;-56
2022/04/27 06:52:25;;;;;;;4.35;2.40;;;;;;;;;;5030478;28;20538;-56
2022/04/27 06:54:52;;;;;;;2.55;2.22;;;;;;;;;;5031277;28;20189;-56
2022/04/27 06:57:19;;;;;;;3.13;2.33;;;;;;;;;;5032600;28;20216;-56
2022/04/27 06:59:47;;;;;;;2.88;2.20;;;;;;;;;;5039644;28;20201;-56
2022/04/27 07:02:16;;;;;;;3.30;2.55;;;;;;;;;;5045584;28;20197;-56
2022/04/27 07:04:51;;;;;;;4.00;2.20;;;;;;;;;;5038799;28;20232;-56
2022/04/27 07:07:18;;;;;;;2.97;2.30;;;;;;;;;;5049391;28;20196;-56
2022/04/27 07:09:45;;;;;;;2.47;2.28;;;;;;;;;;5033559;28;20202;-56
2022/04/27 07:12:13;;;;;;;3.03;2.28;;;;;;;;;;5031759;28;20236;-56
2022/04/27 07:14:40;;;;;;;2.28;2.08;;;;;;;;;;5031852;28;20198;-56
2022/04/27 07:17:08;;;;;;;2.95;2.35;;;;;;;;;;5032543;28;20210;-56
2022/04/27 07:19:36;;;;;;;3.47;2.17;;;;;;;;;;5032312;28;20606;-56
2022/04/27 07:22:05;;;;;;;3.97;2.33;;;;;;;;;;5030878;28;20205;-56
2022/04/27 07:24:34;;;;;;;2.75;2.40;;;;;;;;;;5031566;28;20229;-56
2022/04/27 07:27:01;;;;;;;2.33;2.08;;;;;;;;;;5034777;28;20479;-56
2022/04/27 07:29:29;;;;;;;2.85;2.17;;;;;;;;;;5035476;28;20209;-56
2022/04/27 07:31:56;;;;;;;3.47;2.42;;;;;;;;;;5033696;28;20202;-56
2022/04/27 07:34:24;;;;;;;4.22;2.40;;;;;;;;;;5033835;28;20198;-56
2022/04/27 07:36:52;;;;;;;3.97;2.38;;;;;;;;;;5033805;28;20193;-55
2022/04/27 07:39:20;;;;;;;4.43;2.40;;;;;;;;;;5034185;28;20206;-55
2022/04/27 07:41:47;;;;;;;2.40;2.15;;;;;;;;;;5033152;28;20217;-55
2022/04/27 07:44:14;;;;;;;3.55;2.63;;;;;;;;;;5032919;28;20504;-55
2022/04/27 07:46:47;;;;;;;2.35;2.15;;;;;;;;;;5034060;28;20201;-55
2022/04/27 07:49:14;;;;;;;4.28;2.30;;;;;;;;;;5032741;28;20233;-55
2022/04/27 07:51:42;;;;;;;2.72;2.53;;;;;;;;;;5034622;28;20202;-55
2022/04/27 07:54:11;;;;;;;3.50;2.47;;;;;;;;;;5034824;28;20225;-55
2022/04/27 07:56:38;;;;;;;2.60;2.40;;;;;;;;;;5035524;28;20202;-56
2022/04/27 07:59:05;;;;;;;5.32;2.78;;;;;;;;;;5034309;28;20213;-55
2022/04/27 08:01:33;;;;;;;2.58;2.17;;;;;;;;;;5033736;28;20198;-55
2022/04/27 08:04:00;;;;;;;4.22;2.60;;;;;;;;;;5035153;28;20225;-55
2022/04/27 08:06:27;;;;;;;2.42;2.22;;;;;;;;;;5035260;28;20194;-56
2022/04/27 08:08:55;;;;;;;3.17;2.28;;;;;;;;;;5035021;28;20209;-55
2022/04/27 08:11:24;;;;;;;2.60;2.40;;;;;;;;;;5033382;28;20218;-55
2022/04/27 08:13:51;;;;;;;2.42;2.22;;;;;;;;;;5014690;28;20205;-55
2022/04/27 08:16:18;;;;;;;3.55;2.33;;;;;;;;;;5013604;28;20729;-56
2022/04/27 08:18:46;;;;;;;3.30;2.50;;;;;;;;;;5013679;28;20265;-56
2022/04/27 08:21:16;;;;;;;2.33;2.00;;;;;;;;;;5013397;28;20213;-55
2022/04/27 08:23:44;;;;;;;2.78;2.35;;;;;;;;;;5014320;28;20706;-55
2022/04/27 08:26:12;;;;;;;3.47;2.40;;;;;;;;;;5013745;28;20206;-56
2022/04/27 08:28:41;;;;;;;2.40;2.20;;;;;;;;;;5014344;28;20616;-55
2022/04/27 08:31:09;;;;;;;3.72;2.40;;;;;;;;;;5014638;28;20202;-56
2022/04/27 08:33:37;;;;;;;2.97;2.33;;;;;;;;;;5014022;28;20191;-56
2022/04/27 08:36:05;;;;;;;3.42;2.30;;;;;;;;;;5013634;28;20479;-55
2022/04/27 08:38:34;;;;;;;3.97;2.25;;;;;;;;;;5013028;28;20569;-55
2022/04/27 08:41:01;;;;;;;3.58;2.20;;;;;;;;;;5019528;28;20198;-56
2022/04/27 08:43:28;;;;;;;2.50;1.90;;;;;;;;;;5033273;28;20212;-56
2022/04/27 08:45:57;;;;;;;2.78;2.33;;;;;;;;;;5032511;28;20309;-55
2022/04/27 08:48:24;;;;;;;2.58;2.38;;;;;;;;;;5032541;28;20205;-56
2022/04/27 08:50:53;;;;;;;2.50;2.30;;;;;;;;;;5012933;28;20493;-56
2022/04/27 08:53:20;;;;;;;3.70;2.35;;;;;;;;;;5012757;28;20541;-56
2022/04/27 08:55:48;;;;;;;2.45;2.10;;;;;;;;;;5013759;28;20194;-56
2022/04/27 08:58:15;;;;;;;2.58;2.13;;;;;;;;;;5012730;28;20572;-55
2022/04/27 09:00:44;;;;;;;2.40;2.15;;;;;;;;;;5015182;28;20529;-55
2022/04/27 09:03:26;;;;;;;3.75;2.22;;;;;;;;;;5033711;28;20216;-55
2022/04/27 09:05:54;;;;;;;2.22;2.03;;;;;;;;;;5031360;28;20218;-55
2022/04/27 09:08:22;;;;;;;2.17;1.98;;;;;;;;;;5014609;28;20203;-56
2022/04/27 09:10:49;;;;;;;2.60;2.40;;;;;;;;;;5013161;28;20203;-56
2022/04/27 09:13:16;;;;;;;2.65;2.10;;;;;;;;;;5028802;28;20222;-56
2022/04/27 09:15:44;;;;;;;3.30;2.10;;;;;;;;;;5033279;28;20599;-56
2022/04/27 09:21:04;;;;;;;2.33;1.92;;;;;;;;;;5032293;28;20327;-56
2022/04/27 09:23:37;;;;;;;2.55;2.10;;;;;;;;;;5032344;28;20205;-55
2022/04/27 09:26:19;;;;;;;2.50;2.10;;;;;;;;;;5035623;28;20309;-56
2022/04/27 09:28:48;;;;;;;2.05;1.85;;;;;;;;;;5042909;28;20205;-56
2022/04/27 09:31:29;;;;;;;2.25;2.05;;;;;;;;;;5035342;28;20213;-57
2022/04/27 09:34:00;;;;;;;3.30;2.20;;;;;;;;;;5047424;28;20449;-56
2022/04/27 09:36:29;;;;;;;2.40;2.00;;;;;;;;;;5045305;28;20243;-56
2022/04/27 09:38:57;;;;;;;3.33;2.20;;;;;;;;;;5043114;28;20201;-57
2022/04/27 09:41:37;;;;;;;2.50;2.25;;;;;;;;;;5030968;28;20229;-56
2022/04/27 09:44:05;;;;;;;2.67;2.10;;;;;;;;;;5032787;28;20233;-56
2022/04/27 09:46:40;;;;;;;2.30;2.10;;;;;;;;;;5032224;28;20208;-56
2022/04/27 09:49:11;;;;;;;2.55;2.10;;;;;;;;;;5030730;28;20209;-56
2022/04/27 09:51:47;;;;;;;2.40;2.00;;;;;;;;;;5031694;28;20596;-56
2022/04/27 09:54:18;;;;;;;2.30;2.08;;;;;;;;;;5032515;28;20189;-56
2022/04/27 09:56:49;;;;;;;2.38;1.90;;;;;;;;;;5032364;28;20209;-56
2022/04/27 09:59:18;;;;;;;2.30;2.10;;;;;;;;;;5033774;28;20197;-56
2022/04/27 10:01:45;;;;;;;2.00;1.90;;;;;;;;;;5042447;28;20201;-55
2022/04/27 10:04:14;;;;;;;2.58;2.10;;;;;;;;;;5031703;28;20236;-56
2022/04/27 10:06:43;;;;;;;2.03;1.90;;;;;;;;;;5048441;28;20200;-56
2022/04/27 10:09:11;;;;;;;2.00;1.80;;;;;;;;;;5051313;28;20227;-56
2022/04/27 10:11:38;;;;;;;1.98;1.88;;;;;;;;;;5052111;28;20204;-56
2022/04/27 10:14:05;;;;;;;2.65;2.25;;;;;;;;;;5051308;28;20212;-56
2022/04/27 10:16:33;;;;;;;2.03;1.70;;;;;;;;;;5051725;28;20200;-56
2022/04/27 10:19:00;;;;;;;2.28;2.08;;;;;;;;;;5044185;28;20227;-56
2022/04/27 10:21:43;;;;;;;1.90;1.80;;;;;;;;;;5051326;28;20204;-56
2022/04/27 10:24:13;;;;;;;2.00;1.80;;;;;;;;;;5045717;28;20197;-56
2022/04/27 10:26:40;;;;;;;1.90;1.80;;;;;;;;;;5032161;28;20198;-56
2022/04/27 10:29:09;;;;;;;2.33;2.13;;;;;;;;;;5032192;28;20197;-56
2022/04/27 10:31:55;;;;;;;2.10;1.83;;;;;;;;;;5030922;28;20678;-56
2022/04/27 10:34:23;;;;;;;3.40;1.95;;;;;;;;;;5031859;28;20506;-56
2022/04/27 10:36:50;;;;;;;2.13;1.80;;;;;;;;;;5050467;28;20213;-56
2022/04/27 10:39:23;;;;;;;1.90;1.77;;;;;;;;;;5034646;28;20198;-56
2022/04/27 10:41:54;;;;;;;2.13;1.92;;;;;;;;;;5047038;28;20201;-56
2022/04/27 10:44:22;;;;;;;2.15;1.90;;;;;;;;;;5029480;28;20233;-56
2022/04/27 10:46:49;;;;;;;1.80;1.70;;;;;;;;;;5046274;28;20294;-56
2022/04/27 10:49:23;;;;;;;2.35;2.15;;;;;;;;;;5036441;28;20593;-56
2022/04/27 10:52:02;;;;;;;1.65;1.55;;;;;;;;;;5049958;28;20489;-55
2022/04/27 10:54:32;;;;;;;1.77;1.67;;;;;;;;;;5050889;28;20197;-56
2022/04/27 10:57:18;;;;;;;2.17;1.98;;;;;;;;;;5050615;28;20498;-56
2022/04/27 10:59:47;;;;;;;1.88;1.77;;;;;;;;;;5050315;28;20232;-56
2022/04/27 11:02:33;;;;;;;1.75;1.65;;;;;;;;;;5054983;28;20212;-56
2022/04/27 11:05:01;;;;;;;2.08;1.88;;;;;;;;;;5040000;28;20271;-56
2022/04/27 11:07:33;;;;;;;2.00;1.90;;;;;;;;;;5037517;28;20387;-56
2022/04/27 11:10:18;;;;;;;1.85;1.75;;;;;;;;;;5054076;28;20481;-56
2022/04/27 11:12:49;;;;;;;1.80;1.70;;;;;;;;;;5047940;28;20230;-56
2022/04/27 11:15:17;;;;;;;2.00;1.80;;;;;;;;;;5034514;28;21527;-56
2022/04/27 11:17:45;;;;;;;1.65;1.55;;;;;;;;;;5040778;28;20190;-56
2022/04/27 11:20:29;;;;;;;1.73;1.63;;;;;;;;;;5043587;28;20202;-56
2022/04/27 11:22:57;;;;;;;1.80;1.70;;;;;;;;;;5034364;28;20213;-56
2022/04/27 11:25:24;;;;;;;1.80;1.70;;;;;;;;;;5034841;28;20229;-56
2022/04/27 11:27:53;;;;;;;1.95;1.80;;;;;;;;;;5033747;28;20201;-56
2022/04/27 11:30:22;;;;;;;1.70;1.60;;;;;;;;;;5035090;28;20217;-56
2022/04/27 11:32:50;;;;;;;1.85;1.75;;;;;;;;;;5033588;28;20206;-56
2022/04/27 11:35:18;;;;;;;1.80;1.70;;;;;;;;;;5032749;28;20198;-56
2022/04/27 11:37:46;;;;;;;1.95;1.85;;;;;;;;;;5041323;28;20213;-56
2022/04/27 11:40:14;;;;;;;1.95;1.85;;;;;;;;;;5032844;28;20469;-56
2022/04/27 11:42:46;;;;;;;1.60;1.50;;;;;;;;;;5033595;28;20303;-56
2022/04/27 11:45:15;;;;;;;1.70;1.60;;;;;;;;;;5036943;28;20233;-56
2022/04/27 11:47:43;;;;;;;1.77;1.67;;;;;;;;;;5033154;28;20225;-56
2022/04/27 11:50:10;;;;;;;2.03;1.92;;;;;;;;;;5046894;28;20215;-56
2022/04/27 11:52:38;;;;;;;1.80;1.70;;;;;;;;;;5051899;28;20205;-56
2022/04/27 11:55:12;;;;;;;1.70;1.60;;;;;;;;;;5052534;28;20189;-56
2022/04/27 11:57:39;;;;;;;1.83;1.73;;;;;;;;;;5053481;28;20216;-56
2022/04/27 12:00:09;;;;;;;1.90;1.80;;;;;;;;;;5041955;28;20197;-56
2022/04/27 12:02:38;;;;;;;2.00;1.83;;;;;;;;;;5052465;28;20197;-56
2022/04/27 12:05:07;;;;;;;1.80;1.70;;;;;;;;;;5047303;28;20252;-56
2022/04/27 12:07:38;;;;;;;1.60;1.50;;;;;;;;;;5032682;28;20202;-56
2022/04/27 12:10:07;;;;;;;1.77;1.65;;;;;;;;;;5033038;28;20263;-56
2022/04/27 12:12:34;;;;;;;1.90;1.80;;;;;;;;;;5031604;28;20323;-56
2022/04/27 12:15:07;;;;;;;1.80;1.70;;;;;;;;;;5033162;28;20277;-56
2022/04/27 12:17:47;;;;;;;2.15;2.00;;;;;;;;;;5040065;28;20481;-55
2022/04/27 12:20:27;;;;;;;1.88;1.77;;;;;;;;;;5051771;28;20377;-56
2022/04/27 12:22:55;;;;;;;1.73;1.63;;;;;;;;;;5052322;28;20595;-56
2022/04/27 12:25:23;;;;;;;2.00;1.90;;;;;;;;;;5052605;28;20233;-56
2022/04/27 12:27:51;;;;;;;1.60;1.50;;;;;;;;;;5052853;28;20355;-56
2022/04/27 12:30:22;;;;;;;1.90;1.80;;;;;;;;;;5053104;28;20236;-56
2022/04/27 12:32:50;;;;;;;1.77;1.67;;;;;;;;;;5037011;28;20762;-56
2022/04/27 12:38:12;;;;;;;1.98;1.88;;;;;;;;;;5044375;28;20201;-56
2022/04/27 12:40:42;;;;;;;2.03;1.92;;;;;;;;;;5033358;28;20560;-56
2022/04/27 12:43:12;;;;;;;1.65;1.55;;;;;;;;;;5049120;28;20201;-55
2022/04/27 12:45:40;;;;;;;2.30;2.10;;;;;;;;;;5032060;28;20488;-56
2022/04/27 12:48:27;;;;;;;1.70;1.60;;;;;;;;;;5030393;28;20206;-56
2022/04/27 12:50:55;;;;;;;2.05;1.95;;;;;;;;;;5031958;28;20236;-56
2022/04/27 12:53:25;;;;;;;1.83;1.73;;;;;;;;;;5037440;28;20212;-56
2022/04/27 12:56:02;;;;;;;1.98;1.88;;;;;;;;;;5044205;28;20204;-56
2022/04/27 12:58:29;;;;;;;1.88;1.77;;;;;;;;;;5049644;28;20216;-56
2022/04/27 13:00:57;;;;;;;1.80;1.70;;;;;;;;;;5050983;28;20235;-56
2022/04/27 13:03:27;;;;;;;1.98;1.88;;;;;;;;;;5047925;28;20205;-56
2022/04/27 13:05:54;;;;;;;1.70;1.60;;;;;;;;;;5048887;28;20276;-56
2022/04/27 13:08:22;;;;;;;1.80;1.70;;;;;;;;;;5040281;28;20201;-56
2022/04/27 13:13:36;;;;;;;2.03;1.92;;;;;;;;;;5031742;28;20240;-56
2022/04/27 13:16:03;;;;;;;1.98;1.88;;;;;;;;;;5044713;28;20205;-56
2022/04/27 13:18:33;;;;;;;2.10;2.00;;;;;;;;;;5049456;28;20205;-55
2022/04/27 13:21:00;;;;;;;1.90;1.80;;;;;;;;;;5049855;28;20208;-55
2022/04/27 13:23:28;;;;;;;1.52;1.42;;;;;;;;;;5050610;28;20224;-56
2022/04/27 13:25:55;;;;;;;2.00;1.90;;;;;;;;;;5049291;28;20213;-55
2022/04/27 13:28:22;;;;;;;1.92;1.83;;;;;;;;;;5050138;28;20440;-55
2022/04/27 13:30:50;;;;;;;1.90;1.80;;;;;;;;;;5050400;28;20224;-56
2022/04/27 13:33:17;;;;;;;1.90;1.80;;;;;;;;;;5050895;28;20197;-56
2022/04/27 13:35:46;;;;;;;1.70;1.60;;;;;;;;;;5047851;28;20193;-55
2022/04/27 13:38:14;;;;;;;2.17;2.08;;;;;;;;;;5038138;28;20193;-56
2022/04/27 13:40:41;;;;;;;1.90;1.80;;;;;;;;;;5035387;28;20213;-56
2022/04/27 13:43:09;;;;;;;1.70;1.60;;;;;;;;;;5031466;28;20201;-56
2022/04/27 13:45:36;;;;;;;1.98;1.88;;;;;;;;;;5049746;28;20224;-56
2022/04/27 13:48:04;;;;;;;2.00;1.90;;;;;;;;;;5050447;28;20215;-55
2022/04/27 13:50:31;;;;;;;1.85;1.75;;;;;;;;;;5049967;28;20202;-56
2022/04/27 13:53:00;;;;;;;2.10;2.00;;;;;;;;;;5050723;28;20215;-56
2022/04/27 13:55:27;;;;;;;1.70;1.60;;;;;;;;;;5050843;28;20233;-56
2022/04/27 13:57:55;;;;;;;1.77;1.67;;;;;;;;;;5041611;28;20584;-56
2022/04/27 14:00:23;;;;;;;1.70;1.60;;;;;;;;;;5047353;28;20208;-56
2022/04/27 14:02:50;;;;;;;2.00;1.90;;;;;;;;;;5046764;28;20611;-56
2022/04/27 14:05:18;;;;;;;1.90;1.80;;;;;;;;;;5030725;28;20300;-56
2022/04/27 14:07:45;;;;;;;1.83;1.73;;;;;;;;;;5030057;28;20197;-56
2022/04/27 14:10:16;;;;;;;1.67;1.58;;;;;;;;;;5030012;28;20206;-56
2022/04/27 14:15:28;;;;;;;1.80;1.70;;;;;;;;;;5035138;28;20241;-55
2022/04/27 14:18:10;;;;;;;1.95;1.85;;;;;;;;;;5049196;28;20207;-55
2022/04/27 14:20:39;;;;;;;1.90;1.80;;;;;;;;;;5051531;28;20209;-56
2022/04/27 14:23:06;;;;;;;1.75;1.65;;;;;;;;;;5050660;28;20288;-55
2022/04/27 14:25:35;;;;;;;1.75;1.65;;;;;;;;;;5048647;28;20212;-56
2022/04/27 14:28:02;;;;;;;1.60;1.50;;;;;;;;;;5051440;28;20477;-56
2022/04/27 14:30:29;;;;;;;1.90;1.80;;;;;;;;;;5051417;28;20567;-56
2022/04/27 14:32:57;;;;;;;1.77;1.67;;;;;;;;;;5050766;28;20205;-56
2022/04/27 14:35:25;;;;;;;1.80;1.70;;;;;;;;;;5050774;28;20216;-56
2022/04/27 14:37:52;;;;;;;2.13;2.00;;;;;;;;;;5052368;28;20196;-56
2022/04/27 14:40:20;;;;;;;1.70;1.60;;;;;;;;;;5036153;28;20288;-56
2022/04/27 14:42:48;;;;;;;1.70;1.60;;;;;;;;;;5033737;28;20206;-56
2022/04/27 14:45:16;;;;;;;1.95;1.85;;;;;;;;;;5033655;28;20213;-56
2022/04/27 14:47:44;;;;;;;1.70;1.60;;;;;;;;;;5037910;28;20228;-56
2022/04/27 14:50:12;;;;;;;1.75;1.65;;;;;;;;;;5055243;28;20287;-56
2022/04/27 14:52:40;;;;;;;1.98;1.88;;;;;;;;;;5054991;28;20216;-56
2022/04/27 14:55:08;;;;;;;1.67;1.58;;;;;;;;;;5053296;28;20240;-56
2022/04/27 14:57:36;;;;;;;1.80;1.70;;;;;;;;;;5053420;28;20593;-55
2022/04/27 15:00:06;;;;;;;1.98;1.88;;;;;;;;;;5052131;28;20197;-56
2022/04/27 15:02:34;;;;;;;1.75;1.65;;;;;;;;;;5053416;28;20200;-56
2022/04/27 15:05:02;;;;;;;1.90;1.80;;;;;;;;;;5054289;28;20209;-56
2022/04/27 15:07:31;;;;;;;1.95;1.85;;;;;;;;;;5054698;28;20692;-56
2022/04/27 15:09:58;;;;;;;1.85;1.75;;;;;;;;;;5039329;28;20193;-56
2022/04/27 15:12:26;;;;;;;2.03;1.92;;;;;;;;;;5053831;28;20232;-56
2022/04/27 15:14:53;;;;;;;2.00;1.90;;;;;;;;;;5053698;28;20204;-56